sensor_id;sensor_type;location;lat;lon;timestamp;P1;durP1;ratioP1;P2;durP2;ratioP2
42018;SDS011;27703;51.980;5.848;2023-04-30T00:01:39;5.28;;;2.42;;
42018;SDS011;27703;51.980;5.848;2023-04-30T00:04:04;3.38;;;1.88;;
42018;SDS011;27703;51.980;5.848;2023-04-30T00:06:30;3.65;;;1.77;;
42018;SDS011;27703;51.980;5.848;2023-04-30T00:08:56;4.80;;;1.90;;
42018;SDS011;27703;51.980;5.848;2023-04-30T00:11:21;3.88;;;1.40;;
42018;SDS011;27703;51.980;5.848;2023-04-30T00:13:47;3.53;;;1.88;;
42018;SDS011;27703;51.980;5.848;2023-04-30T00:16:13;5.47;;;1.33;;
42018;SDS011;27703;51.980;5.848;2023-04-30T00:18:38;3.47;;;1.50;;
42018;SDS011;27703;51.980;5.848;2023-04-30T00:21:04;2.60;;;1.30;;
42018;SDS011;27703;51.980;5.848;2023-04-30T00:23:29;5.38;;;1.38;;
42018;SDS011;27703;51.980;5.848;2023-04-30T00:25:55;2.53;;;1.50;;
42018;SDS011;27703;51.980;5.848;2023-04-30T00:28:20;2.22;;;1.10;;
42018;SDS011;27703;51.980;5.848;2023-04-30T00:30:46;3.30;;;1.27;;
42018;SDS011;27703;51.980;5.848;2023-04-30T00:33:12;4.93;;;1.70;;
42018;SDS011;27703;51.980;5.848;2023-04-30T00:35:37;3.22;;;2.47;;
42018;SDS011;27703;51.980;5.848;2023-04-30T00:38:03;2.38;;;0.98;;
42018;SDS011;27703;51.980;5.848;2023-04-30T00:40:28;2.88;;;1.73;;
42018;SDS011;27703;51.980;5.848;2023-04-30T00:42:54;4.68;;;1.65;;
42018;SDS011;27703;51.980;5.848;2023-04-30T00:45:20;5.60;;;1.10;;
42018;SDS011;27703;51.980;5.848;2023-04-30T00:47:47;3.92;;;1.63;;
42018;SDS011;27703;51.980;5.848;2023-04-30T00:50:14;1.98;;;1.15;;
42018;SDS011;27703;51.980;5.848;2023-04-30T00:52:40;2.70;;;1.02;;
42018;SDS011;27703;51.980;5.848;2023-04-30T00:55:07;3.33;;;1.10;;
42018;SDS011;27703;51.980;5.848;2023-04-30T00:57:36;2.80;;;1.40;;
42018;SDS011;27703;51.980;5.848;2023-04-30T01:00:03;5.47;;;1.05;;
42018;SDS011;27703;51.980;5.848;2023-04-30T01:02:29;2.10;;;1.30;;
42018;SDS011;27703;51.980;5.848;2023-04-30T01:04:56;5.03;;;1.20;;
42018;SDS011;27703;51.980;5.848;2023-04-30T01:07:22;2.08;;;1.20;;
42018;SDS011;27703;51.980;5.848;2023-04-30T01:09:48;2.60;;;1.10;;
42018;SDS011;27703;51.980;5.848;2023-04-30T01:12:20;6.22;;;1.02;;
42018;SDS011;27703;51.980;5.848;2023-04-30T01:17:59;2.00;;;1.10;;
42018;SDS011;27703;51.980;5.848;2023-04-30T01:20:31;1.42;;;0.75;;
42018;SDS011;27703;51.980;5.848;2023-04-30T01:23:10;2.00;;;0.88;;
42018;SDS011;27703;51.980;5.848;2023-04-30T01:26:06;2.60;;;0.88;;
42018;SDS011;27703;51.980;5.848;2023-04-30T01:28:38;2.72;;;1.13;;
42018;SDS011;27703;51.980;5.848;2023-04-30T01:31:40;1.80;;;0.70;;
42018;SDS011;27703;51.980;5.848;2023-04-30T01:33:58;2.83;;;1.10;;
42018;SDS011;27703;51.980;5.848;2023-04-30T01:36:35;2.42;;;0.98;;
42018;SDS011;27703;51.980;5.848;2023-04-30T01:44:28;2.20;;;1.10;;
42018;SDS011;27703;51.980;5.848;2023-04-30T01:47:12;2.05;;;0.80;;
42018;SDS011;27703;51.980;5.848;2023-04-30T01:52:29;2.63;;;1.60;;
42018;SDS011;27703;51.980;5.848;2023-04-30T01:55:10;2.58;;;1.05;;
42018;SDS011;27703;51.980;5.848;2023-04-30T01:57:52;2.78;;;1.02;;
42018;SDS011;27703;51.980;5.848;2023-04-30T02:00:22;2.20;;;1.10;;
42018;SDS011;27703;51.980;5.848;2023-04-30T02:02:47;4.13;;;1.17;;
42018;SDS011;27703;51.980;5.848;2023-04-30T02:05:13;1.92;;;1.10;;
42018;SDS011;27703;51.980;5.848;2023-04-30T02:07:40;2.22;;;1.30;;
42018;SDS011;27703;51.980;5.848;2023-04-30T02:10:08;2.63;;;1.30;;
42018;SDS011;27703;51.980;5.848;2023-04-30T02:12:35;3.50;;;1.20;;
42018;SDS011;27703;51.980;5.848;2023-04-30T02:15:02;2.30;;;1.65;;
42018;SDS011;27703;51.980;5.848;2023-04-30T02:17:28;2.88;;;1.17;;
42018;SDS011;27703;51.980;5.848;2023-04-30T02:19:54;2.50;;;1.30;;
42018;SDS011;27703;51.980;5.848;2023-04-30T02:22:19;3.78;;;1.15;;
42018;SDS011;27703;51.980;5.848;2023-04-30T02:24:45;6.55;;;1.30;;
42018;SDS011;27703;51.980;5.848;2023-04-30T02:27:10;3.13;;;1.52;;
42018;SDS011;27703;51.980;5.848;2023-04-30T02:29:36;2.03;;;1.17;;
42018;SDS011;27703;51.980;5.848;2023-04-30T02:32:01;2.72;;;1.20;;
42018;SDS011;27703;51.980;5.848;2023-04-30T02:34:27;2.33;;;1.33;;
42018;SDS011;27703;51.980;5.848;2023-04-30T02:36:52;4.28;;;1.88;;
42018;SDS011;27703;51.980;5.848;2023-04-30T02:39:18;4.85;;;2.25;;
42018;SDS011;27703;51.980;5.848;2023-04-30T02:41:43;3.55;;;1.95;;
42018;SDS011;27703;51.980;5.848;2023-04-30T02:44:09;3.42;;;1.67;;
42018;SDS011;27703;51.980;5.848;2023-04-30T02:46:35;2.65;;;1.73;;
42018;SDS011;27703;51.980;5.848;2023-04-30T02:49:00;3.85;;;1.92;;
42018;SDS011;27703;51.980;5.848;2023-04-30T02:51:26;4.75;;;1.23;;
42018;SDS011;27703;51.980;5.848;2023-04-30T02:53:52;3.70;;;1.33;;
42018;SDS011;27703;51.980;5.848;2023-04-30T02:56:18;3.00;;;1.40;;
42018;SDS011;27703;51.980;5.848;2023-04-30T02:58:44;4.22;;;1.40;;
42018;SDS011;27703;51.980;5.848;2023-04-30T03:01:09;2.38;;;1.27;;
42018;SDS011;27703;51.980;5.848;2023-04-30T03:03:35;2.85;;;1.60;;
42018;SDS011;27703;51.980;5.848;2023-04-30T03:06:00;3.28;;;1.20;;
42018;SDS011;27703;51.980;5.848;2023-04-30T03:08:26;2.10;;;1.23;;
42018;SDS011;27703;51.980;5.848;2023-04-30T03:10:51;3.45;;;1.25;;
42018;SDS011;27703;51.980;5.848;2023-04-30T03:13:17;2.70;;;1.52;;
42018;SDS011;27703;51.980;5.848;2023-04-30T03:15:43;4.78;;;1.40;;
42018;SDS011;27703;51.980;5.848;2023-04-30T03:18:09;6.22;;;1.60;;
42018;SDS011;27703;51.980;5.848;2023-04-30T03:20:35;4.50;;;1.60;;
42018;SDS011;27703;51.980;5.848;2023-04-30T03:23:01;3.75;;;1.50;;
42018;SDS011;27703;51.980;5.848;2023-04-30T03:25:26;2.38;;;1.08;;
42018;SDS011;27703;51.980;5.848;2023-04-30T03:27:52;3.63;;;1.38;;
42018;SDS011;27703;51.980;5.848;2023-04-30T03:30:17;2.20;;;1.15;;
42018;SDS011;27703;51.980;5.848;2023-04-30T03:32:43;3.45;;;1.35;;
42018;SDS011;27703;51.980;5.848;2023-04-30T03:35:09;3.60;;;1.50;;
42018;SDS011;27703;51.980;5.848;2023-04-30T03:37:35;4.05;;;1.10;;
42018;SDS011;27703;51.980;5.848;2023-04-30T03:40:00;5.13;;;1.60;;
42018;SDS011;27703;51.980;5.848;2023-04-30T03:42:26;2.42;;;1.40;;
42018;SDS011;27703;51.980;5.848;2023-04-30T03:44:51;4.57;;;1.52;;
42018;SDS011;27703;51.980;5.848;2023-04-30T03:47:17;3.55;;;1.65;;
42018;SDS011;27703;51.980;5.848;2023-04-30T03:49:42;2.10;;;1.33;;
42018;SDS011;27703;51.980;5.848;2023-04-30T03:52:08;2.85;;;1.67;;
42018;SDS011;27703;51.980;5.848;2023-04-30T03:54:33;4.57;;;1.70;;
42018;SDS011;27703;51.980;5.848;2023-04-30T03:56:59;3.75;;;1.42;;
42018;SDS011;27703;51.980;5.848;2023-04-30T03:59:27;3.28;;;1.67;;
42018;SDS011;27703;51.980;5.848;2023-04-30T04:01:53;3.40;;;1.98;;
42018;SDS011;27703;51.980;5.848;2023-04-30T04:04:19;4.25;;;1.48;;
42018;SDS011;27703;51.980;5.848;2023-04-30T04:06:45;3.97;;;1.17;;
42018;SDS011;27703;51.980;5.848;2023-04-30T04:09:10;3.45;;;1.23;;
42018;SDS011;27703;51.980;5.848;2023-04-30T04:11:36;3.30;;;1.52;;
42018;SDS011;27703;51.980;5.848;2023-04-30T04:14:01;3.28;;;1.50;;
42018;SDS011;27703;51.980;5.848;2023-04-30T04:16:27;3.88;;;1.83;;
42018;SDS011;27703;51.980;5.848;2023-04-30T04:18:52;7.20;;;2.67;;
42018;SDS011;27703;51.980;5.848;2023-04-30T04:21:18;4.43;;;2.20;;
42018;SDS011;27703;51.980;5.848;2023-04-30T04:23:44;4.85;;;2.58;;
42018;SDS011;27703;51.980;5.848;2023-04-30T04:26:09;5.55;;;2.15;;
42018;SDS011;27703;51.980;5.848;2023-04-30T04:28:35;5.25;;;1.90;;
42018;SDS011;27703;51.980;5.848;2023-04-30T04:31:02;7.32;;;2.13;;
42018;SDS011;27703;51.980;5.848;2023-04-30T04:33:27;4.95;;;2.40;;
42018;SDS011;27703;51.980;5.848;2023-04-30T04:35:53;3.88;;;1.77;;
42018;SDS011;27703;51.980;5.848;2023-04-30T04:38:21;6.43;;;2.65;;
42018;SDS011;27703;51.980;5.848;2023-04-30T04:40:50;6.47;;;2.22;;
42018;SDS011;27703;51.980;5.848;2023-04-30T04:43:19;3.40;;;2.33;;
42018;SDS011;27703;51.980;5.848;2023-04-30T04:45:44;4.03;;;2.35;;
42018;SDS011;27703;51.980;5.848;2023-04-30T04:48:11;3.75;;;3.03;;
42018;SDS011;27703;51.980;5.848;2023-04-30T04:50:37;3.88;;;2.53;;
42018;SDS011;27703;51.980;5.848;2023-04-30T04:53:03;3.20;;;1.92;;
42018;SDS011;27703;51.980;5.848;2023-04-30T04:55:28;4.05;;;2.47;;
42018;SDS011;27703;51.980;5.848;2023-04-30T04:57:54;5.00;;;1.83;;
42018;SDS011;27703;51.980;5.848;2023-04-30T05:00:19;3.47;;;2.20;;
42018;SDS011;27703;51.980;5.848;2023-04-30T05:02:47;5.55;;;2.88;;
42018;SDS011;27703;51.980;5.848;2023-04-30T05:05:13;9.93;;;3.55;;
42018;SDS011;27703;51.980;5.848;2023-04-30T05:07:38;4.45;;;2.67;;
42018;SDS011;27703;51.980;5.848;2023-04-30T05:10:04;4.13;;;2.72;;
42018;SDS011;27703;51.980;5.848;2023-04-30T05:12:31;8.02;;;3.63;;
42018;SDS011;27703;51.980;5.848;2023-04-30T05:14:57;5.03;;;2.95;;
42018;SDS011;27703;51.980;5.848;2023-04-30T05:17:22;6.43;;;3.60;;
42018;SDS011;27703;51.980;5.848;2023-04-30T05:19:48;4.68;;;2.80;;
42018;SDS011;27703;51.980;5.848;2023-04-30T05:22:14;4.45;;;3.17;;
42018;SDS011;27703;51.980;5.848;2023-04-30T05:24:40;5.47;;;3.13;;
42018;SDS011;27703;51.980;5.848;2023-04-30T05:27:06;7.25;;;4.05;;
42018;SDS011;27703;51.980;5.848;2023-04-30T05:29:32;6.00;;;3.00;;
42018;SDS011;27703;51.980;5.848;2023-04-30T05:31:57;5.63;;;3.15;;
42018;SDS011;27703;51.980;5.848;2023-04-30T05:34:23;7.30;;;4.43;;
42018;SDS011;27703;51.980;5.848;2023-04-30T05:36:48;5.75;;;4.07;;
42018;SDS011;27703;51.980;5.848;2023-04-30T05:39:14;5.75;;;3.97;;
42018;SDS011;27703;51.980;5.848;2023-04-30T05:41:40;6.78;;;4.30;;
42018;SDS011;27703;51.980;5.848;2023-04-30T05:44:05;7.05;;;5.03;;
42018;SDS011;27703;51.980;5.848;2023-04-30T05:46:31;6.28;;;4.57;;
42018;SDS011;27703;51.980;5.848;2023-04-30T05:48:56;6.50;;;4.78;;
42018;SDS011;27703;51.980;5.848;2023-04-30T05:51:22;7.20;;;4.32;;
42018;SDS011;27703;51.980;5.848;2023-04-30T05:53:48;6.00;;;4.25;;
42018;SDS011;27703;51.980;5.848;2023-04-30T05:56:13;7.80;;;3.65;;
42018;SDS011;27703;51.980;5.848;2023-04-30T05:58:39;6.05;;;4.40;;
42018;SDS011;27703;51.980;5.848;2023-04-30T06:01:04;5.07;;;3.67;;
42018;SDS011;27703;51.980;5.848;2023-04-30T06:03:30;6.70;;;4.05;;
42018;SDS011;27703;51.980;5.848;2023-04-30T06:05:56;6.72;;;3.30;;
42018;SDS011;27703;51.980;5.848;2023-04-30T06:08:22;8.50;;;4.35;;
42018;SDS011;27703;51.980;5.848;2023-04-30T06:10:47;9.05;;;3.63;;
42018;SDS011;27703;51.980;5.848;2023-04-30T06:13:14;4.70;;;3.28;;
42018;SDS011;27703;51.980;5.848;2023-04-30T06:15:40;5.80;;;3.72;;
42018;SDS011;27703;51.980;5.848;2023-04-30T06:18:06;7.13;;;4.18;;
42018;SDS011;27703;51.980;5.848;2023-04-30T06:20:31;6.93;;;3.78;;
42018;SDS011;27703;51.980;5.848;2023-04-30T06:22:57;8.38;;;3.78;;
42018;SDS011;27703;51.980;5.848;2023-04-30T06:25:24;4.97;;;3.08;;
42018;SDS011;27703;51.980;5.848;2023-04-30T06:27:50;4.15;;;2.97;;
42018;SDS011;27703;51.980;5.848;2023-04-30T06:30:17;4.82;;;2.85;;
42018;SDS011;27703;51.980;5.848;2023-04-30T06:32:43;7.68;;;4.35;;
42018;SDS011;27703;51.980;5.848;2023-04-30T06:35:09;10.40;;;3.65;;
42018;SDS011;27703;51.980;5.848;2023-04-30T06:37:34;7.55;;;2.92;;
42018;SDS011;27703;51.980;5.848;2023-04-30T06:40:02;4.70;;;3.38;;
42018;SDS011;27703;51.980;5.848;2023-04-30T06:42:29;4.15;;;2.70;;
42018;SDS011;27703;51.980;5.848;2023-04-30T06:44:58;6.82;;;4.07;;
42018;SDS011;27703;51.980;5.848;2023-04-30T06:47:25;5.90;;;4.03;;
42018;SDS011;27703;51.980;5.848;2023-04-30T06:49:51;6.63;;;3.10;;
42018;SDS011;27703;51.980;5.848;2023-04-30T06:52:16;5.72;;;3.33;;
42018;SDS011;27703;51.980;5.848;2023-04-30T06:54:42;8.30;;;3.83;;
42018;SDS011;27703;51.980;5.848;2023-04-30T06:57:08;6.15;;;3.90;;
42018;SDS011;27703;51.980;5.848;2023-04-30T06:59:33;7.68;;;4.75;;
42018;SDS011;27703;51.980;5.848;2023-04-30T07:01:59;7.68;;;4.85;;
42018;SDS011;27703;51.980;5.848;2023-04-30T07:04:24;4.13;;;3.55;;
42018;SDS011;27703;51.980;5.848;2023-04-30T07:06:51;6.75;;;4.68;;
42018;SDS011;27703;51.980;5.848;2023-04-30T07:09:16;7.45;;;5.47;;
42018;SDS011;27703;51.980;5.848;2023-04-30T07:11:42;5.13;;;4.60;;
42018;SDS011;27703;51.980;5.848;2023-04-30T07:14:08;5.05;;;4.00;;
42018;SDS011;27703;51.980;5.848;2023-04-30T07:16:33;7.90;;;4.90;;
42018;SDS011;27703;51.980;5.848;2023-04-30T07:18:59;8.50;;;4.55;;
42018;SDS011;27703;51.980;5.848;2023-04-30T07:21:24;5.70;;;4.28;;
42018;SDS011;27703;51.980;5.848;2023-04-30T07:23:51;4.28;;;3.42;;
42018;SDS011;27703;51.980;5.848;2023-04-30T07:26:17;4.22;;;3.08;;
42018;SDS011;27703;51.980;5.848;2023-04-30T07:28:42;6.35;;;3.72;;
42018;SDS011;27703;51.980;5.848;2023-04-30T07:31:12;5.80;;;3.05;;
42018;SDS011;27703;51.980;5.848;2023-04-30T07:33:37;7.63;;;3.55;;
42018;SDS011;27703;51.980;5.848;2023-04-30T07:36:03;7.45;;;3.25;;
42018;SDS011;27703;51.980;5.848;2023-04-30T07:38:29;5.60;;;2.65;;
42018;SDS011;27703;51.980;5.848;2023-04-30T07:40:54;9.05;;;4.10;;
42018;SDS011;27703;51.980;5.848;2023-04-30T07:43:20;4.90;;;3.22;;
42018;SDS011;27703;51.980;5.848;2023-04-30T07:45:46;4.85;;;3.58;;
42018;SDS011;27703;51.980;5.848;2023-04-30T07:48:13;9.80;;;3.60;;
42018;SDS011;27703;51.980;5.848;2023-04-30T07:50:38;4.63;;;3.78;;
42018;SDS011;27703;51.980;5.848;2023-04-30T07:53:04;7.80;;;4.03;;
42018;SDS011;27703;51.980;5.848;2023-04-30T07:55:33;4.60;;;2.65;;
42018;SDS011;27703;51.980;5.848;2023-04-30T07:57:58;3.90;;;3.08;;
42018;SDS011;27703;51.980;5.848;2023-04-30T08:00:26;3.20;;;2.63;;
42018;SDS011;27703;51.980;5.848;2023-04-30T08:02:53;4.50;;;2.90;;
42018;SDS011;27703;51.980;5.848;2023-04-30T08:05:18;3.35;;;2.83;;
42018;SDS011;27703;51.980;5.848;2023-04-30T08:07:44;8.90;;;3.22;;
42018;SDS011;27703;51.980;5.848;2023-04-30T08:10:10;5.75;;;2.65;;
42018;SDS011;27703;51.980;5.848;2023-04-30T08:12:36;7.05;;;3.83;;
42018;SDS011;27703;51.980;5.848;2023-04-30T08:15:02;5.63;;;3.10;;
42018;SDS011;27703;51.980;5.848;2023-04-30T08:17:29;7.10;;;3.05;;
42018;SDS011;27703;51.980;5.848;2023-04-30T08:19:55;4.22;;;3.33;;
42018;SDS011;27703;51.980;5.848;2023-04-30T08:22:21;4.72;;;2.97;;
42018;SDS011;27703;51.980;5.848;2023-04-30T08:24:47;4.45;;;2.97;;
42018;SDS011;27703;51.980;5.848;2023-04-30T08:27:13;6.07;;;2.63;;
42018;SDS011;27703;51.980;5.848;2023-04-30T08:29:39;7.32;;;3.95;;
42018;SDS011;27703;51.980;5.848;2023-04-30T08:32:04;4.60;;;3.33;;
42018;SDS011;27703;51.980;5.848;2023-04-30T08:34:30;6.05;;;3.72;;
42018;SDS011;27703;51.980;5.848;2023-04-30T08:36:56;4.90;;;3.47;;
42018;SDS011;27703;51.980;5.848;2023-04-30T08:39:21;4.13;;;2.92;;
42018;SDS011;27703;51.980;5.848;2023-04-30T08:41:49;4.13;;;2.83;;
42018;SDS011;27703;51.980;5.848;2023-04-30T08:44:21;4.40;;;3.20;;
42018;SDS011;27703;51.980;5.848;2023-04-30T08:46:56;6.07;;;3.35;;
42018;SDS011;27703;51.980;5.848;2023-04-30T08:49:23;4.28;;;2.50;;
42018;SDS011;27703;51.980;5.848;2023-04-30T08:51:49;4.72;;;2.10;;
42018;SDS011;27703;51.980;5.848;2023-04-30T08:54:16;3.40;;;2.28;;
42018;SDS011;27703;51.980;5.848;2023-04-30T08:56:43;3.38;;;2.30;;
42018;SDS011;27703;51.980;5.848;2023-04-30T08:59:10;3.78;;;2.22;;
42018;SDS011;27703;51.980;5.848;2023-04-30T09:01:36;4.07;;;2.95;;
42018;SDS011;27703;51.980;5.848;2023-04-30T09:04:03;3.45;;;2.50;;
42018;SDS011;27703;51.980;5.848;2023-04-30T09:06:29;5.35;;;2.40;;
42018;SDS011;27703;51.980;5.848;2023-04-30T09:08:55;4.00;;;2.60;;
42018;SDS011;27703;51.980;5.848;2023-04-30T09:11:22;4.07;;;2.13;;
42018;SDS011;27703;51.980;5.848;2023-04-30T09:13:50;3.22;;;1.90;;
42018;SDS011;27703;51.980;5.848;2023-04-30T09:16:19;2.90;;;2.03;;
42018;SDS011;27703;51.980;5.848;2023-04-30T09:18:45;3.67;;;1.75;;
42018;SDS011;27703;51.980;5.848;2023-04-30T09:21:11;5.13;;;3.08;;
42018;SDS011;27703;51.980;5.848;2023-04-30T09:23:46;4.53;;;1.95;;
42018;SDS011;27703;51.980;5.848;2023-04-30T09:26:26;4.78;;;2.20;;
42018;SDS011;27703;51.980;5.848;2023-04-30T09:28:56;4.28;;;2.58;;
42018;SDS011;27703;51.980;5.848;2023-04-30T09:31:23;5.32;;;2.33;;
42018;SDS011;27703;51.980;5.848;2023-04-30T09:33:50;5.53;;;2.78;;
42018;SDS011;27703;51.980;5.848;2023-04-30T09:36:17;4.18;;;2.58;;
42018;SDS011;27703;51.980;5.848;2023-04-30T09:38:43;2.08;;;1.55;;
42018;SDS011;27703;51.980;5.848;2023-04-30T09:41:19;2.45;;;1.33;;
42018;SDS011;27703;51.980;5.848;2023-04-30T09:43:54;3.67;;;2.00;;
42018;SDS011;27703;51.980;5.848;2023-04-30T09:46:21;6.70;;;2.13;;
42018;SDS011;27703;51.980;5.848;2023-04-30T09:49:00;4.47;;;2.53;;
42018;SDS011;27703;51.980;5.848;2023-04-30T09:51:27;1.83;;;1.40;;
42018;SDS011;27703;51.980;5.848;2023-04-30T09:53:53;6.38;;;1.50;;
42018;SDS011;27703;51.980;5.848;2023-04-30T09:56:20;3.78;;;1.80;;
42018;SDS011;27703;51.980;5.848;2023-04-30T09:58:51;3.53;;;1.80;;
42018;SDS011;27703;51.980;5.848;2023-04-30T10:01:18;2.03;;;1.25;;
42018;SDS011;27703;51.980;5.848;2023-04-30T10:03:46;3.40;;;1.52;;
42018;SDS011;27703;51.980;5.848;2023-04-30T10:06:12;5.90;;;2.15;;
42018;SDS011;27703;51.980;5.848;2023-04-30T10:08:41;4.10;;;1.52;;
42018;SDS011;27703;51.980;5.848;2023-04-30T10:11:09;2.10;;;1.30;;
42018;SDS011;27703;51.980;5.848;2023-04-30T10:18:57;2.92;;;1.77;;
42018;SDS011;27703;51.980;5.848;2023-04-30T10:21:23;5.18;;;1.98;;
42018;SDS011;27703;51.980;5.848;2023-04-30T10:23:50;3.33;;;1.20;;
42018;SDS011;27703;51.980;5.848;2023-04-30T10:26:18;1.67;;;0.85;;
42018;SDS011;27703;51.980;5.848;2023-04-30T10:28:44;1.92;;;1.00;;
42018;SDS011;27703;51.980;5.848;2023-04-30T10:31:12;3.03;;;0.75;;
42018;SDS011;27703;51.980;5.848;2023-04-30T10:36:28;3.38;;;1.40;;
42018;SDS011;27703;51.980;5.848;2023-04-30T10:39:01;3.67;;;0.93;;
42018;SDS011;27703;51.980;5.848;2023-04-30T10:41:27;1.52;;;0.73;;
42018;SDS011;27703;51.980;5.848;2023-04-30T10:43:56;1.70;;;0.80;;
42018;SDS011;27703;51.980;5.848;2023-04-30T10:46:25;1.98;;;1.05;;
42018;SDS011;27703;51.980;5.848;2023-04-30T10:48:52;4.00;;;1.27;;
42018;SDS011;27703;51.980;5.848;2023-04-30T10:51:19;1.77;;;0.95;;
42018;SDS011;27703;51.980;5.848;2023-04-30T10:53:46;1.90;;;1.10;;
42018;SDS011;27703;51.980;5.848;2023-04-30T10:56:28;2.53;;;1.00;;
42018;SDS011;27703;51.980;5.848;2023-04-30T10:58:57;2.97;;;1.40;;
42018;SDS011;27703;51.980;5.848;2023-04-30T11:01:25;2.95;;;1.00;;
42018;SDS011;27703;51.980;5.848;2023-04-30T11:06:47;2.63;;;1.40;;
42018;SDS011;27703;51.980;5.848;2023-04-30T11:09:14;2.10;;;0.82;;
42018;SDS011;27703;51.980;5.848;2023-04-30T11:11:41;2.60;;;0.88;;
42018;SDS011;27703;51.980;5.848;2023-04-30T11:14:09;2.92;;;1.27;;
42018;SDS011;27703;51.980;5.848;2023-04-30T11:16:36;1.88;;;0.80;;
42018;SDS011;27703;51.980;5.848;2023-04-30T11:19:05;2.40;;;0.98;;
42018;SDS011;27703;51.980;5.848;2023-04-30T11:21:50;1.75;;;1.05;;
42018;SDS011;27703;51.980;5.848;2023-04-30T11:27:11;3.58;;;1.25;;
42018;SDS011;27703;51.980;5.848;2023-04-30T11:29:37;3.28;;;1.55;;
42018;SDS011;27703;51.980;5.848;2023-04-30T11:32:04;2.95;;;1.05;;
42018;SDS011;27703;51.980;5.848;2023-04-30T11:34:30;2.67;;;1.13;;
42018;SDS011;27703;51.980;5.848;2023-04-30T11:36:58;3.25;;;1.42;;
42018;SDS011;27703;51.980;5.848;2023-04-30T11:39:25;3.53;;;1.27;;
42018;SDS011;27703;51.980;5.848;2023-04-30T11:41:52;3.58;;;2.05;;
42018;SDS011;27703;51.980;5.848;2023-04-30T11:44:21;2.53;;;1.00;;
42018;SDS011;27703;51.980;5.848;2023-04-30T11:46:49;2.50;;;0.90;;
42018;SDS011;27703;51.980;5.848;2023-04-30T11:49:15;2.05;;;1.00;;
42018;SDS011;27703;51.980;5.848;2023-04-30T11:51:41;2.17;;;0.90;;
42018;SDS011;27703;51.980;5.848;2023-04-30T11:54:07;2.88;;;0.85;;
42018;SDS011;27703;51.980;5.848;2023-04-30T11:56:32;4.88;;;0.75;;
42018;SDS011;27703;51.980;5.848;2023-04-30T11:59:07;4.03;;;1.33;;
42018;SDS011;27703;51.980;5.848;2023-04-30T12:01:34;1.52;;;0.80;;
42018;SDS011;27703;51.980;5.848;2023-04-30T12:04:01;3.47;;;1.27;;
42018;SDS011;27703;51.980;5.848;2023-04-30T12:06:30;4.38;;;1.10;;
42018;SDS011;27703;51.980;5.848;2023-04-30T12:08:57;3.33;;;0.73;;
42018;SDS011;27703;51.980;5.848;2023-04-30T12:11:26;3.22;;;1.30;;
42018;SDS011;27703;51.980;5.848;2023-04-30T12:13:53;3.72;;;0.80;;
42018;SDS011;27703;51.980;5.848;2023-04-30T12:16:20;2.25;;;0.80;;
42018;SDS011;27703;51.980;5.848;2023-04-30T12:18:46;3.67;;;0.70;;
42018;SDS011;27703;51.980;5.848;2023-04-30T12:21:12;1.45;;;0.60;;
42018;SDS011;27703;51.980;5.848;2023-04-30T12:23:39;1.60;;;0.57;;
42018;SDS011;27703;51.980;5.848;2023-04-30T12:26:04;2.70;;;0.55;;
42018;SDS011;27703;51.980;5.848;2023-04-30T12:28:30;2.17;;;0.50;;
42018;SDS011;27703;51.980;5.848;2023-04-30T12:30:58;1.40;;;0.60;;
42018;SDS011;27703;51.980;5.848;2023-04-30T12:33:23;3.03;;;0.52;;
42018;SDS011;27703;51.980;5.848;2023-04-30T12:35:53;1.45;;;0.47;;
42018;SDS011;27703;51.980;5.848;2023-04-30T12:38:21;3.28;;;0.50;;
42018;SDS011;27703;51.980;5.848;2023-04-30T12:40:47;1.67;;;0.60;;
42018;SDS011;27703;51.980;5.848;2023-04-30T12:43:14;3.15;;;0.60;;
42018;SDS011;27703;51.980;5.848;2023-04-30T12:45:50;1.38;;;0.57;;
42018;SDS011;27703;51.980;5.848;2023-04-30T12:48:18;1.38;;;0.50;;
42018;SDS011;27703;51.980;5.848;2023-04-30T12:50:46;1.17;;;0.40;;
42018;SDS011;27703;51.980;5.848;2023-04-30T12:53:33;0.85;;;0.40;;
42018;SDS011;27703;51.980;5.848;2023-04-30T12:56:10;1.27;;;0.63;;
42018;SDS011;27703;51.980;5.848;2023-04-30T12:58:38;0.75;;;0.30;;
42018;SDS011;27703;51.980;5.848;2023-04-30T13:01:05;1.10;;;0.22;;
42018;SDS011;27703;51.980;5.848;2023-04-30T13:03:41;0.40;;;0.20;;
42018;SDS011;27703;51.980;5.848;2023-04-30T13:06:06;0.82;;;0.20;;
42018;SDS011;27703;51.980;5.848;2023-04-30T13:08:32;1.67;;;0.20;;
42018;SDS011;27703;51.980;5.848;2023-04-30T13:10:58;0.80;;;0.20;;
42018;SDS011;27703;51.980;5.848;2023-04-30T13:13:23;0.20;;;0.10;;
42018;SDS011;27703;51.980;5.848;2023-04-30T13:15:49;1.88;;;0.17;;
42018;SDS011;27703;51.980;5.848;2023-04-30T13:18:15;0.47;;;0.20;;
42018;SDS011;27703;51.980;5.848;2023-04-30T13:20:41;0.65;;;0.20;;
42018;SDS011;27703;51.980;5.848;2023-04-30T13:23:10;1.27;;;0.20;;
42018;SDS011;27703;51.980;5.848;2023-04-30T13:25:36;0.95;;;0.10;;
42018;SDS011;27703;51.980;5.848;2023-04-30T13:28:02;0.40;;;0.15;;
42018;SDS011;27703;51.980;5.848;2023-04-30T13:30:28;0.68;;;0.20;;
42018;SDS011;27703;51.980;5.848;2023-04-30T13:32:54;0.57;;;0.20;;
42018;SDS011;27703;51.980;5.848;2023-04-30T13:35:20;0.90;;;0.30;;
42018;SDS011;27703;51.980;5.848;2023-04-30T13:37:45;0.70;;;0.20;;
42018;SDS011;27703;51.980;5.848;2023-04-30T13:40:16;0.73;;;0.20;;
42018;SDS011;27703;51.980;5.848;2023-04-30T13:42:43;0.80;;;0.30;;
42018;SDS011;27703;51.980;5.848;2023-04-30T13:45:10;0.60;;;0.20;;
42018;SDS011;27703;51.980;5.848;2023-04-30T13:47:35;0.52;;;0.20;;
42018;SDS011;27703;51.980;5.848;2023-04-30T13:50:02;1.63;;;0.20;;
42018;SDS011;27703;51.980;5.848;2023-04-30T13:52:28;0.77;;;0.30;;
42018;SDS011;27703;51.980;5.848;2023-04-30T13:54:53;0.75;;;0.20;;
42018;SDS011;27703;51.980;5.848;2023-04-30T13:57:19;1.65;;;0.20;;
42018;SDS011;27703;51.980;5.848;2023-04-30T13:59:45;1.38;;;0.55;;
42018;SDS011;27703;51.980;5.848;2023-04-30T14:02:10;2.50;;;0.50;;
42018;SDS011;27703;51.980;5.848;2023-04-30T14:04:36;0.70;;;0.30;;
42018;SDS011;27703;51.980;5.848;2023-04-30T14:07:03;1.30;;;0.30;;
42018;SDS011;27703;51.980;5.848;2023-04-30T14:09:29;1.02;;;0.30;;
42018;SDS011;27703;51.980;5.848;2023-04-30T14:11:54;0.90;;;0.30;;
42018;SDS011;27703;51.980;5.848;2023-04-30T14:14:23;0.82;;;0.20;;
42018;SDS011;27703;51.980;5.848;2023-04-30T14:16:49;1.67;;;0.20;;
42018;SDS011;27703;51.980;5.848;2023-04-30T14:19:15;0.90;;;0.10;;
42018;SDS011;27703;51.980;5.848;2023-04-30T14:21:40;0.75;;;0.20;;
42018;SDS011;27703;51.980;5.848;2023-04-30T14:24:06;0.88;;;0.30;;
42018;SDS011;27703;51.980;5.848;2023-04-30T14:26:32;0.80;;;0.20;;
42018;SDS011;27703;51.980;5.848;2023-04-30T14:28:57;1.00;;;0.50;;
42018;SDS011;27703;51.980;5.848;2023-04-30T14:31:23;0.57;;;0.20;;
42018;SDS011;27703;51.980;5.848;2023-04-30T14:33:48;1.02;;;0.20;;
42018;SDS011;27703;51.980;5.848;2023-04-30T14:36:14;0.43;;;0.10;;
42018;SDS011;27703;51.980;5.848;2023-04-30T14:38:40;0.60;;;0.20;;
42018;SDS011;27703;51.980;5.848;2023-04-30T14:41:06;0.88;;;0.20;;
42018;SDS011;27703;51.980;5.848;2023-04-30T14:43:31;1.23;;;0.15;;
42018;SDS011;27703;51.980;5.848;2023-04-30T14:45:57;0.52;;;0.10;;
42018;SDS011;27703;51.980;5.848;2023-04-30T14:48:22;0.57;;;0.10;;
42018;SDS011;27703;51.980;5.848;2023-04-30T14:50:48;0.98;;;0.10;;
42018;SDS011;27703;51.980;5.848;2023-04-30T14:53:13;2.72;;;0.20;;
42018;SDS011;27703;51.980;5.848;2023-04-30T14:55:39;1.42;;;0.13;;
42018;SDS011;27703;51.980;5.848;2023-04-30T14:58:05;0.50;;;0.10;;
42018;SDS011;27703;51.980;5.848;2023-04-30T15:00:31;0.80;;;0.20;;
42018;SDS011;27703;51.980;5.848;2023-04-30T15:02:57;0.93;;;0.13;;
42018;SDS011;27703;51.980;5.848;2023-04-30T15:05:22;0.30;;;0.10;;
42018;SDS011;27703;51.980;5.848;2023-04-30T15:07:48;0.52;;;0.10;;
42018;SDS011;27703;51.980;5.848;2023-04-30T15:10:14;0.40;;;0.03;;
42018;SDS011;27703;51.980;5.848;2023-04-30T15:12:40;0.30;;;0.10;;